Flight Track Log - Related Links

Times and Time Zones

All times are in EDT time to prevent confusion due to time zone crossing. See the JBU51 flight status page for this flight to view local times or setup timezone preferences in your user account.

Time Position Orientation Groundspeed Altitude Reporting Facility
EDT Latitude Longitude Course Direction KTS MPH feet Rate Location/Type
Sun 11:28:54 AM 44.4050 -73.1433 196° South 191 220 3,100  Level Boston Center
Sun 11:30:00 AM 44.2272 -73.2307 190° South  Level FlightAware Approximate
Sun 11:30:06 AM 44.3528 -73.1600 193° South 196 226 6,000  Level Boston Center
Sun 11:31:00 AM 44.1507 -73.2685 195° South  Level FlightAware Approximate
Sun 11:31:06 AM 44.2733 -73.1939 197° South 234 269 9,800  Level Boston Center
Sun 11:32:00 AM 44.0712 -73.2983 195° South  Level FlightAware Approximate
Sun 11:32:06 AM 44.2025 -73.1958 181° South 271 312 12,200  Level Boston Center
Sun 11:33:00 AM 43.9912 -73.3252 194° South  Level FlightAware Approximate
Sun 11:33:06 AM 44.1089 -73.1975 181° South 315 362 14,400  Level Boston Center
Sun 11:34:00 AM 43.9113 -73.3522 196° South  Level FlightAware Approximate
Sun 11:34:06 AM 44.0169 -73.2167 189° South 337 388 16,600  Level Boston Center
Sun 11:35:06 AM 43.9167 -73.2442 191° South 362 417 19,200 2,500 Climbing Boston Center
Sun 11:36:06 AM 43.8186 -73.2717 191° South 367 422 21,600 2,250 Climbing Boston Center
Sun 11:37:06 AM 43.7225 -73.2989 192° South 361 415 23,700 1,950 Climbing Boston Center
Sun 11:38:06 AM 43.6267 -73.3178 188° South 361 415 25,500 1,636 Climbing Boston Center
Sun 11:39:07 AM 43.5283 -73.3450 191° South 356 410 27,000 1,100 Climbing Boston Center
Sun 11:40:06 AM 43.4261 -73.3719 191° South 362 417 27,700 454 Climbing Boston Center
Sun 11:41:06 AM 43.3156 -73.4017 191° South 383 441 27,900 150 Climbing Boston Center
Sun 11:42:06 AM 43.1983 -73.4311 190° South 408 470 28,000 50 Climbing Boston Center
Sun 11:43:06 AM 43.0814 -73.4633 191° South 422 486 28,000  Level Boston Center
Sun 11:44:06 AM 42.9625 -73.4956 191° South 430 495 28,000  Level Boston Center
Sun 11:45:06 AM 42.8350 -73.5300 191° South 430 495 28,000  Level Boston Center
Sun 11:46:06 AM 42.7178 -73.5619 191° South 430 495 28,000  Level Boston Center
Sun 11:47:06 AM 42.6092 -73.5911 191° South 435 501 28,000  Level Boston Center
Sun 11:48:06 AM 42.4922 -73.6197 190° South 435 501 28,000  Level Boston Center
Sun 11:49:06 AM 42.3731 -73.6514 191° South 435 501 28,000  Level Boston Center
Sun 11:50:06 AM 42.2561 -73.6742 188° South 429 494 28,000  Level Boston Center
Sun 11:51:06 AM 42.1392 -73.7056 191° South 429 494 28,000  Level Boston Center
Sun 11:52:06 AM 42.0217 -73.7592 199° South 434 499 28,000  Level Boston Center
Sun 11:53:06 AM 41.9128 -73.8156 201° Southwest 434 499 28,000  Level Boston Center
Sun 11:54:06 AM 41.8017 -73.8658 199° South 434 499 28,000 -1,224 Level Boston Center
Sun 11:55:38 AM 41.6228 -73.9486 199° South 424 488 24,900 -2,066 Descending New York Center
Sun 11:56:37 AM 41.5214 -73.9992 200° South 419 482 22,800 -2,067 Descending New York Center
Sun 11:57:37 AM 41.4161 -74.0411 197° South 407 468 20,800 -1,388 Descending New York Center
Sun 11:58:38 AM 41.3114 -74.0636 189° South 401 461 20,000 -397 Descending New York Center
Sun 11:59:38 AM 41.2047 -74.0831 188° South 395 455 20,000 -300 Level New York Center
Sun 12:00:38 PM 41.1083 -74.1031 189° South 377 434 19,400 -614 Descending New York Center
Sun 12:01:06 PM 41.0500 -74.1167 190° South 329 379 19,100 -273 Descending New York TRACON
Sun 12:02:06 PM 40.9667 -74.1000 171° South 351 404 19,000 -750 Descending New York TRACON
Sun 12:03:06 PM 40.8833 -74.0167 143° Southeast 370 426 17,600 -1,700 Descending New York TRACON
Sun 12:04:06 PM 40.8000 -73.9333 143° Southeast 363 418 15,600 -1,950 Descending New York TRACON
Sun 12:05:06 PM 40.7333 -73.8500 137° Southeast 354 407 13,700 -1,300 Descending New York TRACON
Sun 12:06:06 PM 40.7000 -73.7333 111° Southeast 407 468 13,000 -1,150 Descending New York TRACON
Sun 12:07:06 PM 40.6667 -73.6167 111° Southeast 334 384 11,400 -1,619 Descending New York TRACON
Sun 12:08:12 PM 40.6000 -73.5500 143° Southeast 303 349 9,600 -1,550 Descending New York TRACON
Sun 12:09:06 PM 40.5333 -73.5667 191° South 258 297 8,300 -1,579 Descending New York TRACON
Sun 12:10:06 PM 40.4833 -73.6167 217° Southwest 253 291 6,600 -1,750 Descending New York TRACON
Sun 12:11:06 PM 40.4500 -73.7000 242° Southwest 241 277 4,800 -1,750 Descending New York TRACON
Sun 12:12:06 PM 40.4333 -73.7833 255° West 250 288 3,100 -900 Descending New York TRACON
Sun 12:13:06 PM 40.4500 -73.8833 282° West 257 296 3,000 -50 Descending New York TRACON
Sun 12:14:06 PM 40.4833 -73.9667 298° West 267 307 3,000  Level New York TRACON
Sun 12:15:06 PM 40.5500 -73.9500 11° North 257 296 3,000 -263 Level New York TRACON
Sun 12:16:00 PM 40.6000 -73.9000 37° Northeast 245 282 2,500 -950 Descending New York TRACON
Sun 12:17:06 PM 40.6667 -73.8500 30° Northeast 200 230 1,100 -1,273 Descending New York TRACON
Sun 12:19:00 PM 40.6398 -73.7789 123° Southeast  Level Estimated
Sun 12:26:00 PM 40.6398 -73.7789 311° West  Level Estimated

Login

Don't have an account? Register now (free) for customized features, flight alerts, and more!